Time;durP1;ratioP1;P1;durP2;ratioP2;P2;SDS_P1;SDS_P2;PMS_P1;PMS_P2;Temp;Humidity;BMP_temperature;BMP_pressure;BME280_temperature;BME280_humidity;BME280_pressure;Samples;Min_cycle;Max_cycle;Signal;HPM_P1;HPM_P2
2022/01/16 00:04:08;;;;;;;1.33;1.25;;;3.30;99.90;;;;;;4429320;32;20060;-68
2022/01/16 00:06:20;;;;;;;0.68;0.68;;;3.30;99.90;;;;;;4428737;32;20053;-68
2022/01/16 00:08:46;;;;;;;0.30;0.30;;;3.30;99.90;;;;;;4443621;32;20144;-68
2022/01/16 00:11:12;;;;;;;2.95;1.58;;;3.20;99.90;;;;;;4441424;32;20057;-68
2022/01/16 00:13:38;;;;;;;0.30;0.30;;;3.30;99.90;;;;;;4441590;32;20532;-68
2022/01/16 00:16:03;;;;;;;0.30;0.30;;;3.30;99.90;;;;;;4428126;32;20053;-68
2022/01/16 00:18:40;;;;;;;4.68;1.17;;;3.30;99.90;;;;;;4441940;32;20469;-68
2022/01/16 00:21:06;;;;;;;1.85;1.20;;;3.20;99.90;;;;;;4442519;32;20089;-68
2022/01/16 00:23:31;;;;;;;4.57;2.08;;;3.20;99.90;;;;;;4429197;32;20431;-68
2022/01/16 00:25:57;;;;;;;3.78;0.77;;;3.20;99.90;;;;;;4440821;32;20053;-68
2022/01/16 00:28:24;;;;;;;0.40;0.40;;;3.20;99.90;;;;;;4440744;32;20077;-68
2022/01/16 00:30:51;;;;;;;5.82;2.42;;;3.30;99.90;;;;;;4424683;32;20120;-68
2022/01/16 00:33:18;;;;;;;1.25;1.05;;;3.30;99.90;;;;;;4427047;32;20101;-68
2022/01/16 00:35:44;;;;;;;0.40;0.40;;;3.30;99.90;;;;;;4441945;32;20070;-68
2022/01/16 00:38:09;;;;;;;2.00;0.65;;;3.20;99.90;;;;;;4442184;32;20069;-68
2022/01/16 00:40:36;;;;;;;0.32;0.32;;;3.20;99.90;;;;;;4442545;32;20065;-68
2022/01/16 00:43:03;;;;;;;1.05;0.75;;;3.20;99.90;;;;;;4442796;32;20388;-68
2022/01/16 00:45:29;;;;;;;0.40;0.40;;;3.20;99.90;;;;;;4437653;32;20132;-68
2022/01/16 00:47:55;;;;;;;0.30;0.30;;;3.20;99.90;;;;;;4426542;32;20085;-68
2022/01/16 00:50:21;;;;;;;0.95;0.95;;;3.30;99.90;;;;;;4429023;32;20571;-68
2022/01/16 00:52:47;;;;;;;1.35;1.15;;;3.20;99.90;;;;;;4441645;32;20096;-68
2022/01/16 00:55:12;;;;;;;6.03;3.15;;;3.20;99.90;;;;;;4439298;32;20118;-68
2022/01/16 00:57:38;;;;;;;2.17;0.90;;;3.20;99.90;;;;;;4441587;32;20168;-68
2022/01/16 01:00:05;;;;;;;0.52;0.52;;;3.10;99.90;;;;;;4441890;32;20082;-68
2022/01/16 01:02:31;;;;;;;0.43;0.43;;;3.20;99.90;;;;;;4439984;32;20072;-68
2022/01/16 01:04:56;;;;;;;12.63;1.05;;;3.10;99.90;;;;;;4441514;32;20057;-68
2022/01/16 01:07:22;;;;;;;0.40;0.40;;;3.00;99.90;;;;;;4441374;32;20073;-68
2022/01/16 01:09:47;;;;;;;2.33;1.62;;;3.00;99.90;;;;;;4440363;32;20065;-68
2022/01/16 01:12:24;;;;;;;0.60;0.60;;;3.20;99.90;;;;;;4441611;32;20084;-68
2022/01/16 01:15:05;;;;;;;0.30;0.30;;;3.20;99.90;;;;;;4440817;32;20123;-68
2022/01/16 01:17:35;;;;;;;0.40;0.40;;;3.10;99.90;;;;;;4442159;32;20085;-68
2022/01/16 01:20:00;;;;;;;0.40;0.40;;;3.00;99.90;;;;;;4441800;32;20065;-68
2022/01/16 01:22:26;;;;;;;1.12;0.75;;;3.00;99.90;;;;;;4441498;32;20077;-68
2022/01/16 01:24:51;;;;;;;0.40;0.40;;;3.00;99.90;;;;;;4440825;32;20073;-68
2022/01/16 01:27:23;;;;;;;0.35;0.35;;;3.00;99.90;;;;;;4440414;32;20066;-68
2022/01/16 01:29:59;;;;;;;0.88;0.88;;;2.90;99.90;;;;;;4440263;32;20077;-68
2022/01/16 01:32:25;;;;;;;0.40;0.40;;;2.90;99.90;;;;;;4441574;32;20181;-68
2022/01/16 01:34:50;;;;;;;0.60;0.60;;;2.70;99.90;;;;;;4441012;32;20156;-68
2022/01/16 01:37:16;;;;;;;0.52;0.52;;;2.70;99.90;;;;;;4439759;32;20105;-68
2022/01/16 01:39:41;;;;;;;0.73;0.73;;;2.70;99.90;;;;;;4440866;32;20513;-68
2022/01/16 01:42:10;;;;;;;0.40;0.40;;;2.70;99.90;;;;;;4442204;32;20520;-68
2022/01/16 01:51:10;;;;;;;0.70;0.70;;;2.70;99.90;;;;;;4427534;32;20117;-68
2022/01/16 01:52:55;;;;;;;0.40;0.40;;;2.60;99.90;;;;;;4428186;32;20093;-68
2022/01/16 01:55:22;;;;;;;1.27;0.93;;;2.70;99.90;;;;;;4438928;32;20068;-68
2022/01/16 01:57:47;;;;;;;0.82;0.82;;;2.60;99.90;;;;;;4439181;32;20065;-68
2022/01/16 02:00:17;;;;;;;2.00;1.27;;;2.60;99.90;;;;;;4442170;32;20540;-69
2022/01/16 02:03:03;;;;;;;1.00;0.70;;;2.60;99.90;;;;;;4439215;32;20561;-68
2022/01/16 02:05:30;;;;;;;0.35;0.35;;;2.50;99.90;;;;;;4443628;32;20060;-67
2022/01/16 02:07:56;;;;;;;0.93;0.90;;;2.50;99.90;;;;;;4444330;32;20123;-68
2022/01/16 02:10:21;;;;;;;0.30;0.30;;;2.60;99.90;;;;;;4442616;32;20145;-68
2022/01/16 02:12:50;;;;;;;0.68;0.57;;;2.60;99.90;;;;;;4443234;32;20504;-68
2022/01/16 02:15:38;;;;;;;1.12;1.05;;;2.50;99.90;;;;;;4443017;32;20560;-68
2022/01/16 02:28:24;;;;;;;8.85;1.42;;;2.30;99.90;;;;;;4429930;32;20072;-68
2022/01/16 02:29:37;;;;;;;3.25;2.65;;;2.30;99.90;;;;;;4430754;32;20096;-68
2022/01/16 02:34:39;;;;;;;0.30;0.30;;;2.20;99.90;;;;;;4442162;32;20090;-68
2022/01/16 02:37:08;;;;;;;0.60;0.60;;;2.10;99.90;;;;;;4443575;32;20061;-68
2022/01/16 02:39:36;;;;;;;0.80;0.80;;;2.10;99.90;;;;;;4442409;32;20064;-68
2022/01/16 02:42:05;;;;;;;8.68;1.67;;;2.10;99.90;;;;;;4443542;32;20190;-68
2022/01/16 02:44:35;;;;;;;0.60;0.60;;;2.10;99.90;;;;;;4415427;32;20065;-68
2022/01/16 02:47:01;;;;;;;0.60;0.60;;;2.00;99.90;;;;;;4443720;32;20073;-68
2022/01/16 02:49:30;;;;;;;5.03;1.17;;;2.00;99.90;;;;;;4430949;32;20541;-68
2022/01/16 02:51:59;;;;;;;0.80;0.80;;;1.90;99.90;;;;;;4443368;32;20085;-68
2022/01/16 02:54:27;;;;;;;0.65;0.65;;;1.90;99.90;;;;;;4443161;32;20058;-68
2022/01/16 02:56:52;;;;;;;2.92;1.12;;;1.90;99.90;;;;;;4441846;32;20073;-68
2022/01/16 02:59:18;;;;;;;0.80;0.80;;;1.90;99.90;;;;;;4442275;32;20065;-68
2022/01/16 03:01:44;;;;;;;0.35;0.35;;;1.90;99.90;;;;;;4442871;32;20080;-68
2022/01/16 03:04:10;;;;;;;0.30;0.30;;;1.80;99.90;;;;;;4442358;32;20118;-68
2022/01/16 03:06:36;;;;;;;0.52;0.52;;;1.80;99.90;;;;;;4442052;32;20068;-68
2022/01/16 03:09:05;;;;;;;0.50;0.50;;;1.70;99.90;;;;;;4442670;32;20065;-68
2022/01/16 03:11:35;;;;;;;2.92;1.75;;;1.70;99.90;;;;;;4442009;32;20168;-68
2022/01/16 03:14:03;;;;;;;0.70;0.70;;;1.70;99.90;;;;;;4441978;32;20061;-68
2022/01/16 03:16:29;;;;;;;1.55;1.37;;;1.80;99.90;;;;;;4428560;32;20432;-68
2022/01/16 03:21:57;;;;;;;1.67;1.37;;;1.70;99.90;;;;;;4429997;32;20098;-68
2022/01/16 03:24:26;;;;;;;0.77;0.77;;;1.60;99.90;;;;;;4443956;32;20576;-68
2022/01/16 03:26:55;;;;;;;9.38;1.50;;;1.70;99.90;;;;;;4443423;32;20065;-68
2022/01/16 03:29:21;;;;;;;0.40;0.40;;;1.60;99.90;;;;;;4443167;32;20097;-67
2022/01/16 03:31:46;;;;;;;0.52;0.52;;;1.50;99.90;;;;;;4429102;32;20092;-67
2022/01/16 03:34:12;;;;;;;0.88;0.88;;;1.50;99.90;;;;;;4442148;32;20065;-68
2022/01/16 03:36:37;;;;;;;1.52;0.95;;;1.40;99.90;;;;;;4441757;32;20074;-68
2022/01/16 03:39:03;;;;;;;2.05;0.85;;;1.40;99.90;;;;;;4441910;32;20521;-68
2022/01/16 03:41:30;;;;;;;1.62;0.95;;;1.40;99.90;;;;;;4442593;32;20089;-68
2022/01/16 03:44:01;;;;;;;1.05;1.05;;;1.30;99.90;;;;;;4439515;32;20159;-68
2022/01/16 03:46:29;;;;;;;;;;;1.30;99.90;;;;;;4429347;32;20111;-68
2022/01/16 03:48:55;;;;;;;0.52;0.52;;;1.30;99.90;;;;;;4442157;32;20384;-67
2022/01/16 03:51:21;;;;;;;2.72;0.77;;;1.20;99.90;;;;;;4441659;32;20089;-67
2022/01/16 03:53:46;;;;;;;4.47;2.80;;;1.20;99.90;;;;;;4443737;32;20061;-67
2022/01/16 03:56:12;;;;;;;0.73;0.73;;;1.20;99.90;;;;;;4440258;32;20442;-68
2022/01/16 03:58:37;;;;;;;0.50;0.50;;;1.20;99.90;;;;;;4442343;32;20539;-67
2022/01/16 04:01:03;;;;;;;5.47;3.37;;;1.30;99.90;;;;;;4443649;32;20077;-67
2022/01/16 04:03:28;;;;;;;1.02;0.98;;;1.20;99.90;;;;;;4441515;32;20049;-68
2022/01/16 04:05:54;;;;;;;5.78;2.95;;;1.20;99.90;;;;;;4442074;32;20481;-68
2022/01/16 04:08:19;;;;;;;0.35;0.35;;;1.10;99.90;;;;;;4442310;32;20069;-68
2022/01/16 04:10:45;;;;;;;0.73;0.73;;;1.00;99.90;;;;;;4441376;32;20780;-68
2022/01/16 04:13:12;;;;;;;4.37;2.62;;;1.00;99.90;;;;;;4441363;32;20057;-68
2022/01/16 04:15:37;;;;;;;0.73;0.73;;;1.00;99.90;;;;;;4440200;32;20127;-68
2022/01/16 04:18:05;;;;;;;0.40;0.40;;;1.10;99.90;;;;;;4442178;32;20086;-68
2022/01/16 04:20:32;;;;;;;0.47;0.47;;;1.00;99.90;;;;;;4427152;32;20057;-68
2022/01/16 04:22:58;;;;;;;4.97;1.92;;;0.90;99.90;;;;;;4440162;32;20069;-68
2022/01/16 04:25:23;;;;;;;0.85;0.85;;;1.00;99.90;;;;;;4441045;32;20073;-68
2022/01/16 04:27:49;;;;;;;0.95;0.90;;;0.90;99.90;;;;;;4439437;32;20073;-68
2022/01/16 04:30:15;;;;;;;3.85;0.88;;;0.90;99.90;;;;;;4441062;32;20089;-67
2022/01/16 04:32:40;;;;;;;0.55;0.55;;;0.80;99.90;;;;;;4442984;32;20103;-67
2022/01/16 04:35:07;;;;;;;5.95;2.80;;;0.80;99.90;;;;;;4425357;32;82485;-68
2022/01/16 04:37:33;;;;;;;1.37;1.27;;;0.80;99.90;;;;;;4443030;32;20074;-68
2022/01/16 04:40:03;;;;;;;2.22;1.65;;;0.80;99.90;;;;;;4440922;32;20102;-68
2022/01/16 04:44:01;;;;;;;0.40;0.40;;;0.70;99.90;;;;;;4441233;32;20081;-68
2022/01/16 04:45:14;;;;;;;0.40;0.40;;;0.70;99.90;;;;;;4429311;32;20121;-67
2022/01/16 04:47:42;;;;;;;3.40;2.67;;;0.70;99.90;;;;;;4442023;32;20510;-67
2022/01/16 04:50:11;;;;;;;0.40;0.40;;;0.90;99.90;;;;;;4426749;32;20117;-67
2022/01/16 04:52:38;;;;;;;5.37;1.85;;;1.00;99.90;;;;;;4442042;32;20592;-67
2022/01/16 04:55:04;;;;;;;4.95;2.47;;;0.90;99.90;;;;;;4439125;32;20096;-68
2022/01/16 04:57:29;;;;;;;1.40;1.30;;;0.90;99.90;;;;;;4441499;32;20097;-68
2022/01/16 04:59:55;;;;;;;0.93;0.93;;;0.80;99.90;;;;;;4440933;32;20061;-68
2022/01/16 05:02:20;;;;;;;1.87;1.25;;;0.80;99.90;;;;;;4441536;32;20081;-68
2022/01/16 05:04:46;;;;;;;0.40;0.40;;;0.80;99.90;;;;;;4442224;32;20072;-68
2022/01/16 05:07:11;;;;;;;0.40;0.40;;;0.70;99.90;;;;;;4425857;32;20120;-68
2022/01/16 05:09:36;;;;;;;0.55;0.55;;;0.70;99.90;;;;;;4440227;32;20089;-68
2022/01/16 05:12:08;;;;;;;0.52;0.52;;;0.90;99.90;;;;;;4428049;32;20081;-68
2022/01/16 05:16:38;;;;;;;0.60;0.60;;;0.80;99.90;;;;;;4440023;32;20080;-68
2022/01/16 05:17:19;;;;;;;0.45;0.45;;;0.90;99.90;;;;;;4429311;32;20445;-68
2022/01/16 05:19:45;;;;;;;6.10;2.92;;;1.00;99.90;;;;;;4441115;32;20082;-68
2022/01/16 05:22:10;;;;;;;0.93;0.85;;;1.00;99.90;;;;;;4441366;32;20114;-68
2022/01/16 05:24:36;;;;;;;3.70;1.87;;;0.80;99.90;;;;;;4441448;32;20124;-68
2022/01/16 05:27:01;;;;;;;0.50;0.50;;;0.80;99.90;;;;;;4441804;32;20247;-68
2022/01/16 05:29:27;;;;;;;0.40;0.40;;;0.80;99.90;;;;;;4426231;32;20061;-68
2022/01/16 05:31:52;;;;;;;0.60;0.60;;;0.80;99.90;;;;;;4425670;32;20096;-68
2022/01/16 05:34:18;;;;;;;0.55;0.55;;;0.70;99.90;;;;;;4440364;32;20089;-68
2022/01/16 05:36:44;;;;;;;1.77;1.20;;;0.70;99.90;;;;;;4443718;32;20077;-68
2022/01/16 05:39:11;;;;;;;3.47;1.95;;;0.60;99.90;;;;;;4443899;32;20070;-68
2022/01/16 05:41:37;;;;;;;0.90;0.90;;;0.70;99.90;;;;;;4429719;32;20509;-68
2022/01/16 05:44:03;;;;;;;0.73;0.73;;;0.70;99.90;;;;;;4430057;32;20065;-68
2022/01/16 05:46:28;;;;;;;3.30;1.87;;;0.60;99.90;;;;;;4444206;32;20119;-68
2022/01/16 05:48:54;;;;;;;0.30;0.30;;;0.60;99.90;;;;;;4443900;32;20069;-68
2022/01/16 05:51:19;;;;;;;0.68;0.68;;;0.60;99.90;;;;;;4445019;32;20082;-68
2022/01/16 05:53:45;;;;;;;0.60;0.60;;;0.60;99.90;;;;;;4443642;32;20419;-68
2022/01/16 05:56:12;;;;;;;0.70;0.70;;;0.70;99.90;;;;;;4443347;32;20069;-68
2022/01/16 05:58:39;;;;;;;1.33;0.88;;;0.60;99.90;;;;;;4428228;32;20152;-67
2022/01/16 06:01:04;;;;;;;0.73;0.73;;;0.60;99.90;;;;;;4442654;32;20431;-67
2022/01/16 06:03:30;;;;;;;2.42;1.40;;;0.70;99.90;;;;;;4442909;32;20081;-67
2022/01/16 06:05:55;;;;;;;1.90;1.77;;;0.60;99.90;;;;;;4442504;32;20092;-67
2022/01/16 06:08:21;;;;;;;0.52;0.52;;;0.70;99.90;;;;;;4442319;32;20133;-67
2022/01/16 06:10:46;;;;;;;2.20;1.77;;;0.80;99.90;;;;;;4444145;32;20162;-67
2022/01/16 06:13:12;;;;;;;0.57;0.57;;;0.70;99.90;;;;;;4442670;32;20119;-67
2022/01/16 06:15:40;;;;;;;0.47;0.47;;;0.80;99.90;;;;;;4427750;32;20112;-68
2022/01/16 06:18:06;;;;;;;0.90;0.90;;;1.00;99.90;;;;;;4443949;32;20108;-68
2022/01/16 06:20:32;;;;;;;1.25;1.15;;;1.00;99.90;;;;;;4442207;32;20451;-68
2022/01/16 06:23:00;;;;;;;2.40;1.17;;;1.00;99.90;;;;;;4443727;32;20062;-68
2022/01/16 06:25:26;;;;;;;8.75;2.67;;;1.00;99.90;;;;;;4442016;32;20237;-68
2022/01/16 06:27:51;;;;;;;1.85;0.88;;;0.90;99.90;;;;;;4442711;32;20125;-68
2022/01/16 06:30:17;;;;;;;0.40;0.40;;;0.90;99.90;;;;;;4442228;32;20078;-68
2022/01/16 06:32:43;;;;;;;4.57;1.52;;;0.90;99.90;;;;;;4428870;32;20953;-68
2022/01/16 06:35:10;;;;;;;0.68;0.68;;;0.90;99.90;;;;;;4441565;32;20571;-68
2022/01/16 06:37:36;;;;;;;0.40;0.40;;;0.90;99.90;;;;;;4443911;32;20088;-67
2022/01/16 06:40:03;;;;;;;0.60;0.60;;;0.90;99.90;;;;;;4442029;32;20073;-68
2022/01/16 06:42:28;;;;;;;12.95;2.15;;;0.90;99.90;;;;;;4429131;32;20101;-68
2022/01/16 06:44:54;;;;;;;0.62;0.62;;;0.90;99.90;;;;;;4442829;32;20509;-67
2022/01/16 06:47:19;;;;;;;5.10;1.23;;;0.90;99.90;;;;;;4442987;32;20105;-67
2022/01/16 06:49:45;;;;;;;3.70;1.12;;;0.80;99.90;;;;;;4442261;32;20090;-67
2022/01/16 06:52:10;;;;;;;0.90;0.90;;;0.80;99.90;;;;;;4443441;32;20065;-67
2022/01/16 06:54:37;;;;;;;0.75;0.75;;;0.80;99.90;;;;;;4439960;32;20155;-67
2022/01/16 06:57:02;;;;;;;0.93;0.73;;;0.90;99.90;;;;;;4443267;32;20082;-67
2022/01/16 06:59:28;;;;;;;2.20;1.62;;;0.80;99.90;;;;;;4442014;32;20081;-67
2022/01/16 07:01:53;;;;;;;3.08;1.45;;;0.90;99.90;;;;;;4443857;32;20068;-67
2022/01/16 07:04:19;;;;;;;0.50;0.50;;;0.90;99.90;;;;;;4443223;32;20119;-67
2022/01/16 07:06:44;;;;;;;1.33;1.15;;;0.90;99.90;;;;;;4441094;32;20538;-67
2022/01/16 07:09:10;;;;;;;2.05;1.37;;;0.80;99.90;;;;;;4442946;32;20101;-68
2022/01/16 07:11:36;;;;;;;2.47;1.17;;;0.80;99.90;;;;;;4442634;32;20116;-68
2022/01/16 07:14:02;;;;;;;4.28;2.28;;;0.80;99.90;;;;;;4442975;32;20060;-68
2022/01/16 07:16:27;;;;;;;0.73;0.73;;;0.80;99.90;;;;;;4429420;32;20120;-68
2022/01/16 07:18:53;;;;;;;1.25;1.15;;;0.80;99.90;;;;;;4442075;32;20081;-67
2022/01/16 07:21:18;;;;;;;1.00;1.00;;;0.70;99.90;;;;;;4443997;32;20065;-68
2022/01/16 07:23:45;;;;;;;0.68;0.68;;;0.70;99.90;;;;;;4441771;32;20431;-67
2022/01/16 07:26:14;;;;;;;0.47;0.47;;;0.80;99.90;;;;;;4441584;32;20208;-68
2022/01/16 07:28:40;;;;;;;0.70;0.70;;;0.70;99.90;;;;;;4425889;32;20097;-67
2022/01/16 07:31:05;;;;;;;0.90;0.85;;;0.70;99.90;;;;;;4442264;32;20078;-68
2022/01/16 07:33:31;;;;;;;0.40;0.40;;;0.70;99.90;;;;;;4442796;32;20073;-68
2022/01/16 07:35:56;;;;;;;0.40;0.40;;;0.60;99.90;;;;;;4444082;32;20451;-68
2022/01/16 07:38:21;;;;;;;0.47;0.47;;;0.70;99.90;;;;;;4441722;32;20084;-68
2022/01/16 07:40:47;;;;;;;1.23;1.15;;;0.70;99.90;;;;;;4441594;32;20109;-68
2022/01/16 07:43:13;;;;;;;0.90;0.85;;;0.80;99.90;;;;;;4442860;32;20085;-67
2022/01/16 07:45:39;;;;;;;4.55;1.75;;;0.60;99.90;;;;;;4443413;32;20077;-66
2022/01/16 07:48:07;;;;;;;2.22;1.62;;;0.80;99.90;;;;;;4427361;32;20069;-70
2022/01/16 07:50:33;;;;;;;1.58;1.48;;;0.80;99.90;;;;;;4440629;32;20124;-66
2022/01/16 07:52:59;;;;;;;0.70;0.70;;;0.90;99.90;;;;;;4442673;32;20119;-67
2022/01/16 07:55:26;;;;;;;0.98;0.98;;;1.00;99.90;;;;;;4438636;32;20065;-67
2022/01/16 07:57:53;;;;;;;0.73;0.73;;;1.00;99.90;;;;;;4440843;32;20065;-67
2022/01/16 08:00:20;;;;;;;0.57;0.57;;;1.00;99.90;;;;;;4443066;32;20093;-67
2022/01/16 08:02:46;;;;;;;0.90;0.90;;;1.00;99.90;;;;;;4442121;32;20565;-67
2022/01/16 08:05:12;;;;;;;3.67;1.20;;;0.80;99.90;;;;;;4441266;32;20081;-67
2022/01/16 08:07:37;;;;;;;0.73;0.73;;;0.80;99.90;;;;;;4441795;32;20077;-67
2022/01/16 08:10:03;;;;;;;1.05;1.05;;;0.90;99.90;;;;;;4442949;32;20096;-67
2022/01/16 08:12:29;;;;;;;1.95;1.62;;;0.80;99.90;;;;;;4441892;32;20149;-68
2022/01/16 08:14:54;;;;;;;0.37;0.37;;;0.70;99.90;;;;;;4441373;32;20069;-69
2022/01/16 08:17:20;;;;;;;0.70;0.70;;;0.80;99.90;;;;;;4426242;32;20069;-68
2022/01/16 08:19:45;;;;;;;0.90;0.90;;;0.80;99.90;;;;;;4441362;32;20074;-69
2022/01/16 08:22:11;;;;;;;2.35;1.67;;;0.80;99.90;;;;;;4442659;32;20428;-67
2022/01/16 08:24:36;;;;;;;0.90;0.90;;;0.70;99.90;;;;;;4440230;32;20089;-68
2022/01/16 08:27:02;;;;;;;3.20;1.75;;;0.70;99.90;;;;;;4426732;32;20111;-68
2022/01/16 08:29:28;;;;;;;2.10;1.58;;;0.90;99.90;;;;;;4424662;32;20065;-68
2022/01/16 08:31:53;;;;;;;0.55;0.55;;;0.90;99.90;;;;;;4440742;32;20064;-68
2022/01/16 08:34:19;;;;;;;1.00;1.00;;;0.90;99.90;;;;;;4441890;32;20072;-69
2022/01/16 08:36:44;;;;;;;10.18;5.90;;;1.00;99.90;;;;;;4441103;32;20471;-68
2022/01/16 08:39:10;;;;;;;1.90;1.80;;;1.10;99.90;;;;;;4426656;32;20176;-67
2022/01/16 08:41:37;;;;;;;1.40;1.30;;;1.00;99.90;;;;;;4441244;32;20077;-68
2022/01/16 08:44:04;;;;;;;3.05;1.35;;;0.90;99.90;;;;;;4426061;32;20125;-68
2022/01/16 08:46:29;;;;;;;0.68;0.68;;;0.80;99.90;;;;;;4441951;32;20065;-68
2022/01/16 08:48:55;;;;;;;3.20;1.80;;;0.90;99.90;;;;;;4441634;32;21811;-68
2022/01/16 08:51:21;;;;;;;1.27;1.08;;;0.90;99.90;;;;;;4442462;32;20133;-68
2022/01/16 08:53:47;;;;;;;2.65;1.58;;;0.90;99.90;;;;;;4441857;32;20089;-68
2022/01/16 08:56:13;;;;;;;0.47;0.47;;;0.80;99.90;;;;;;4426775;32;20097;-68
2022/01/16 08:58:39;;;;;;;0.68;0.68;;;0.80;99.90;;;;;;4426050;32;20577;-68
2022/01/16 09:01:04;;;;;;;3.25;1.00;;;0.70;99.90;;;;;;4440830;32;20089;-68
2022/01/16 09:03:30;;;;;;;1.02;1.02;;;0.60;99.90;;;;;;4440033;32;20471;-68
2022/01/16 09:05:55;;;;;;;1.12;1.08;;;0.80;99.90;;;;;;4442925;32;20061;-68
2022/01/16 09:08:21;;;;;;;1.00;1.00;;;0.90;99.90;;;;;;4440883;32;20085;-67
2022/01/16 09:10:47;;;;;;;0.90;0.90;;;1.00;99.90;;;;;;4440856;32;20084;-68
2022/01/16 09:13:16;;;;;;;4.22;2.10;;;1.10;99.90;;;;;;4441051;32;20131;-67
2022/01/16 09:15:43;;;;;;;0.57;0.57;;;1.10;99.90;;;;;;4426960;32;20069;-68
2022/01/16 09:18:09;;;;;;;3.90;2.15;;;1.00;99.90;;;;;;4427795;32;20065;-67
2022/01/16 09:20:34;;;;;;;2.15;1.00;;;1.10;99.90;;;;;;4441822;32;20068;-67
2022/01/16 09:23:00;;;;;;;4.20;2.00;;;1.10;99.90;;;;;;4441499;32;20086;-67
2022/01/16 09:25:26;;;;;;;0.60;0.60;;;1.30;99.90;;;;;;4438976;32;20088;-67
2022/01/16 09:27:52;;;;;;;0.50;0.50;;;1.20;99.90;;;;;;4441219;32;20176;-67
2022/01/16 09:30:18;;;;;;;0.68;0.68;;;1.10;99.90;;;;;;4425404;32;20164;-67
2022/01/16 09:32:44;;;;;;;1.85;1.20;;;1.20;99.90;;;;;;4441425;32;20787;-69
2022/01/16 09:35:11;;;;;;;1.95;1.70;;;1.10;99.90;;;;;;4440137;32;20442;-68
2022/01/16 09:37:37;;;;;;;1.95;0.98;;;1.20;99.90;;;;;;4440650;32;20583;-67
2022/01/16 09:40:04;;;;;;;1.35;1.17;;;1.20;99.90;;;;;;4440828;32;20081;-69
2022/01/16 09:42:30;;;;;;;0.90;0.90;;;1.20;99.90;;;;;;4440516;32;20089;-67
2022/01/16 09:44:56;;;;;;;2.37;1.20;;;1.30;99.90;;;;;;4440611;32;20066;-67
2022/01/16 09:47:22;;;;;;;7.68;2.03;;;1.40;99.90;;;;;;4441082;32;20455;-68
2022/01/16 09:49:48;;;;;;;0.80;0.80;;;1.30;99.90;;;;;;4409910;32;20081;-69
2022/01/16 09:52:13;;;;;;;0.98;0.93;;;1.40;99.90;;;;;;4442429;32;20628;-68
2022/01/16 09:54:39;;;;;;;0.70;0.70;;;1.50;99.90;;;;;;4440741;32;20077;-67
2022/01/16 09:57:06;;;;;;;1.33;1.23;;;1.70;99.90;;;;;;4441450;32;20203;-68
2022/01/16 09:59:32;;;;;;;0.80;0.80;;;1.70;99.90;;;;;;4438235;32;20105;-68
2022/01/16 10:01:58;;;;;;;0.95;0.80;;;1.80;99.90;;;;;;4426653;32;20119;-68
2022/01/16 10:04:35;;;;;;;0.45;0.45;;;1.70;99.90;;;;;;4441191;32;20093;-68
2022/01/16 10:07:04;;;;;;;0.70;0.68;;;1.70;99.90;;;;;;4442277;32;20073;-68
2022/01/16 10:09:30;;;;;;;7.20;1.45;;;1.70;99.90;;;;;;4427608;32;20423;-68
2022/01/16 10:11:58;;;;;;;0.82;0.82;;;1.90;99.90;;;;;;4429842;32;20078;-68
2022/01/16 10:14:30;;;;;;;0.40;0.40;;;1.90;99.90;;;;;;4426950;32;20116;-68
2022/01/16 10:16:55;;;;;;;1.08;1.08;;;1.90;99.90;;;;;;4439583;32;20097;-68
2022/01/16 10:19:28;;;;;;;0.80;0.75;;;1.90;99.90;;;;;;4440885;32;20061;-68
2022/01/16 10:22:02;;;;;;;1.55;1.12;;;1.90;99.90;;;;;;4426730;32;20081;-68
2022/01/16 10:24:30;;;;;;;1.12;0.68;;;1.80;99.90;;;;;;4441493;32;20117;-68
2022/01/16 10:27:17;;;;;;;5.80;2.83;;;1.80;99.90;;;;;;4442886;32;20077;-68
2022/01/16 10:29:48;;;;;;;1.05;1.05;;;1.80;99.90;;;;;;4441910;32;20452;-68
2022/01/16 10:32:27;;;;;;;0.90;0.90;;;1.90;99.90;;;;;;4442407;32;20058;-68
2022/01/16 10:35:05;;;;;;;0.50;0.50;;;2.00;99.90;;;;;;4442714;32;20085;-68
2022/01/16 10:37:32;;;;;;;1.00;0.90;;;2.00;99.90;;;;;;4443306;32;20407;-67
2022/01/16 10:40:10;;;;;;;0.73;0.73;;;2.00;99.90;;;;;;4443266;32;20097;-68
2022/01/16 10:42:39;;;;;;;0.40;0.40;;;2.00;99.90;;;;;;4442027;32;20135;-68
2022/01/16 10:45:09;;;;;;;0.80;0.80;;;1.90;99.90;;;;;;4444282;32;21886;-68
2022/01/16 10:47:38;;;;;;;1.08;0.82;;;1.90;99.90;;;;;;4428290;32;20125;-68
2022/01/16 10:50:16;;;;;;;0.45;0.45;;;1.80;99.90;;;;;;4441690;32;20077;-69
2022/01/16 10:53:00;;;;;;;0.80;0.80;;;1.80;99.90;;;;;;4443214;32;20116;-68
2022/01/16 10:55:46;;;;;;;1.08;0.93;;;1.80;99.90;;;;;;4427833;32;20124;-68
2022/01/16 10:58:15;;;;;;;0.50;0.50;;;1.80;99.90;;;;;;4431063;32;20073;-68
2022/01/16 11:00:44;;;;;;;0.98;0.98;;;1.80;99.90;;;;;;4444213;32;20070;-68
2022/01/16 11:03:11;;;;;;;0.85;0.85;;;1.80;99.90;;;;;;4417663;32;20065;-68
2022/01/16 11:05:40;;;;;;;2.42;1.42;;;1.80;99.90;;;;;;4442202;32;20487;-68
2022/01/16 11:08:11;;;;;;;15.80;2.85;;;1.80;99.90;;;;;;4443018;32;20101;-68
2022/01/16 11:10:39;;;;;;;1.87;1.02;;;1.90;99.90;;;;;;4440507;32;20069;-68
2022/01/16 11:13:08;;;;;;;0.50;0.50;;;2.00;99.90;;;;;;4443712;32;20085;-68
2022/01/16 11:15:35;;;;;;;0.57;0.57;;;2.00;99.90;;;;;;4443346;32;20478;-68
2022/01/16 11:18:02;;;;;;;0.40;0.40;;;2.00;99.90;;;;;;4427296;32;20517;-68
2022/01/16 11:20:33;;;;;;;0.60;0.60;;;2.00;99.90;;;;;;4442596;32;20507;-68
2022/01/16 11:23:03;;;;;;;0.70;0.70;;;2.10;99.90;;;;;;4441349;32;20149;-68
2022/01/16 11:25:31;;;;;;;0.40;0.40;;;2.20;99.90;;;;;;4426622;32;20065;-68
2022/01/16 11:28:00;;;;;;;0.77;0.77;;;2.20;99.90;;;;;;4441197;32;20135;-68
2022/01/16 11:30:27;;;;;;;3.72;1.08;;;2.20;99.90;;;;;;4442078;32;20073;-68
2022/01/16 11:32:53;;;;;;;0.30;0.30;;;2.30;99.90;;;;;;4439550;32;20583;-68
2022/01/16 11:35:19;;;;;;;0.40;0.40;;;2.30;99.90;;;;;;4440744;32;21416;-68
2022/01/16 11:37:45;;;;;;;0.80;0.80;;;2.40;99.90;;;;;;4443101;32;20068;-68
2022/01/16 11:40:30;;;;;;;1.02;1.00;;;2.40;99.90;;;;;;4442418;32;20085;-68
2022/01/16 11:43:12;;;;;;;0.77;0.77;;;2.40;99.90;;;;;;4428841;32;20522;-68
2022/01/16 11:46:15;;;;;;;0.77;0.77;;;2.40;99.90;;;;;;4427352;32;20134;-68
2022/01/16 11:49:02;;;;;;;1.15;1.08;;;2.40;99.90;;;;;;4432296;32;20458;-68
2022/01/16 11:51:38;;;;;;;0.70;0.70;;;2.50;99.90;;;;;;4426053;32;20097;-68
2022/01/16 11:54:07;;;;;;;1.55;1.05;;;2.50;99.90;;;;;;4441403;32;20064;-68
2022/01/16 11:56:43;;;;;;;0.45;0.45;;;2.60;99.90;;;;;;4438438;32;20102;-68
2022/01/16 11:59:37;;;;;;;2.45;1.25;;;2.60;99.90;;;;;;4440165;32;20068;-68
2022/01/16 12:02:09;;;;;;;0.60;0.60;;;2.60;99.90;;;;;;4429372;32;20078;-68
2022/01/16 12:04:37;;;;;;;0.60;0.60;;;2.50;99.90;;;;;;4437913;32;20094;-68
2022/01/16 12:07:20;;;;;;;0.77;0.77;;;2.60;99.90;;;;;;4439747;32;20072;-67
2022/01/16 12:09:50;;;;;;;0.50;0.50;;;2.60;99.90;;;;;;4442539;32;20088;-68
2022/01/16 12:12:18;;;;;;;1.98;1.05;;;2.60;99.90;;;;;;4440519;32;20065;-67
2022/01/16 12:15:06;;;;;;;0.75;0.75;;;2.60;99.90;;;;;;4442838;32;20065;-68
2022/01/16 12:17:45;;;;;;;0.70;0.70;;;2.70;99.90;;;;;;4431016;32;20164;-67
2022/01/16 12:20:15;;;;;;;0.32;0.32;;;2.70;99.90;;;;;;4440686;32;20113;-67
2022/01/16 12:23:04;;;;;;;0.70;0.70;;;2.80;99.90;;;;;;4427315;32;20113;-68
2022/01/16 12:25:37;;;;;;;0.50;0.50;;;2.80;99.90;;;;;;4428024;32;20080;-67
2022/01/16 12:28:09;;;;;;;0.80;0.80;;;2.80;99.90;;;;;;4426097;32;20094;-67
2022/01/16 12:30:50;;;;;;;0.60;0.60;;;2.70;99.90;;;;;;4441988;32;20089;-67
2022/01/16 12:33:37;;;;;;;0.60;0.60;;;2.70;99.90;;;;;;4441544;32;20162;-67
2022/01/16 12:36:08;;;;;;;0.95;0.88;;;2.70;99.90;;;;;;4430427;32;20130;-67
2022/01/16 12:38:38;;;;;;;2.15;1.55;;;2.80;99.90;;;;;;4440784;32;20080;-67
2022/01/16 12:41:07;;;;;;;0.43;0.43;;;2.80;99.90;;;;;;4425856;32;20515;-67
2022/01/16 12:43:41;;;;;;;0.88;0.85;;;2.80;99.90;;;;;;4439284;32;20330;-67
2022/01/16 12:46:09;;;;;;;1.30;1.02;;;2.90;99.90;;;;;;4441476;32;20350;-67
2022/01/16 12:48:41;;;;;;;0.62;0.62;;;2.90;99.90;;;;;;4425415;32;20077;-67
2022/01/16 12:51:07;;;;;;;0.85;0.80;;;2.90;99.90;;;;;;4440508;32;20080;-67
2022/01/16 12:53:37;;;;;;;2.00;1.12;;;2.90;99.90;;;;;;4442933;32;20068;-69
2022/01/16 12:56:23;;;;;;;1.45;1.35;;;2.90;99.90;;;;;;4426747;32;20126;-68
2022/01/16 12:58:51;;;;;;;3.40;1.48;;;3.00;99.90;;;;;;4440433;32;20101;-68
2022/01/16 13:01:18;;;;;;;0.68;0.68;;;3.10;99.90;;;;;;4425989;32;20084;-68
2022/01/16 13:03:44;;;;;;;1.95;0.88;;;3.10;99.90;;;;;;4440019;32;20065;-68
2022/01/16 13:06:26;;;;;;;2.60;1.55;;;3.10;99.90;;;;;;4439359;32;20061;-68
2022/01/16 13:08:54;;;;;;;9.88;1.67;;;3.10;99.90;;;;;;4439134;32;20057;-67
2022/01/16 13:11:20;;;;;;;0.40;0.40;;;3.10;99.90;;;;;;4426303;32;20073;-67
2022/01/16 13:13:48;;;;;;;0.60;0.60;;;3.10;99.90;;;;;;4438894;32;20077;-68
2022/01/16 13:16:18;;;;;;;0.60;0.60;;;3.10;99.90;;;;;;4439591;32;20068;-67
2022/01/16 13:19:07;;;;;;;0.50;0.50;;;3.20;99.90;;;;;;4426420;32;20068;-67
2022/01/16 13:21:43;;;;;;;0.68;0.68;;;3.20;99.90;;;;;;4421964;32;20077;-68
2022/01/16 13:24:21;;;;;;;0.73;0.73;;;3.20;99.90;;;;;;4426826;32;20511;-67
2022/01/16 13:26:47;;;;;;;2.08;1.23;;;3.10;99.90;;;;;;4426458;32;20509;-68